Terminal Aerodrome Forecast
Issued by NWS

Home | Current Version | Previous Version | Text Only | Print | Product List | Glossary On
Versions: 1 2 3 4 5 6 7 8 9 10 11 12 13 14 15 16 17 18 19 20 21 22 23 24 25 26
000
FTUS45 KGJT 260544
TAFDRO
TAF
KDRO 260544Z 2606/2706 36012KT P6SM VCSH SCT110 WS020/26035KT
     FM261100 04007KT P6SM FEW110
     FM261400 10007KT P6SM SKC
     FM261800 24014G22KT P6SM FEW140
     FM270300 27008KT P6SM FEW130=

USA.gov is the U.S. government's official web portal to all federal, state and local government web resources and services.